Terminal Aerodrome Forecast
Issued by NWS

Home | Current Version | Previous Version | Text Only | Print | Product List | Glossary On
Versions: 1 2 3 4 5 6 7 8 9 10 11 12 13
000
FTUS46 KHNX 270537
TAFVIS
TAF
KVIS 270537Z 2706/2806 VRB03KT P6SM SCT050 BKN120
     FM270900 31006KT P6SM -SHRA BKN050
     FM271800 33015G23KT P6SM BKN050
     FM280300 33010KT P6SM SCT250=

USA.gov is the U.S. government's official web portal to all federal, state and local government web resources and services.